Gatchina, Russia
Current Conditions -  °F | °C
As of 6:00 AM on Thursday 23 Oct 2014 (Local Time) from ULLI Reporting Station
Light Snow Light Snow  
Wind Chill: 19°   Ceiling: 2300
Heat Index: 19°   Visibility: 4mi
Dew Point: 18°   Wind: 2mph
Humidity: 93%   Direction: NA
Pressure: 30.5"   Gusts: NA
Location:  59.57°N, 30.13°E
Report Text: ULLI 230300Z VRB01MPS 6000 -SN OVC023 M07/M08 Q1033 6045035510////// NOSIG
Loading
Personal Weather Stations






























Interactive Weather Map
Tropical Storm Tracking
New forecast layout! Learn more

10-Day Weather Forecast

Advertisements
Track Severe Weather on mobile